createdAt,value
2022-12-14T00:01:29.566Z,-5.40
2022-12-14T00:06:33.737Z,-5.30
2022-12-14T00:11:36.692Z,-5.40
2022-12-14T00:16:39.737Z,-5.30
2022-12-14T00:21:42.774Z,-5.30
2022-12-14T00:26:45.782Z,-5.10
2022-12-14T00:31:49.670Z,-5.10
2022-12-14T00:36:53.064Z,-5.20
2022-12-14T00:41:56.259Z,-5.10
2022-12-14T00:46:59.348Z,-5.10
2022-12-14T00:52:02.427Z,-5.00
2022-12-14T00:57:05.460Z,-4.90
2022-12-14T01:02:08.712Z,-5.10
2022-12-14T01:07:11.868Z,-4.90
2022-12-14T01:12:14.943Z,-5.10
2022-12-14T01:17:17.980Z,-5.10
2022-12-14T01:22:21.011Z,-5.00
2022-12-14T01:27:24.045Z,-5.00
2022-12-14T01:32:27.086Z,-4.90
2022-12-14T01:37:30.163Z,-5.10
2022-12-14T01:42:36.905Z,-5.10
2022-12-14T01:47:47.546Z,-5.10
2022-12-14T01:52:54.532Z,-5.00
2022-12-14T01:58:21.365Z,-5.00
2022-12-14T02:03:48.212Z,-4.90
2022-12-14T02:08:53.700Z,-4.80
2022-12-14T02:13:56.699Z,-4.80
2022-12-14T02:18:59.851Z,-4.80
2022-12-14T02:24:25.395Z,-4.90
2022-12-14T02:30:02.530Z,-5.00
2022-12-14T02:35:33.313Z,-4.90
2022-12-14T02:41:15.267Z,-4.80
2022-12-14T02:46:53.953Z,-4.80
2022-12-14T02:52:16.198Z,-4.80
2022-12-14T02:57:29.459Z,-4.80
2022-12-14T03:02:37.609Z,-4.70
2022-12-14T03:07:52.815Z,-4.70
2022-12-14T03:13:02.740Z,-4.80
2022-12-14T03:18:08.120Z,-4.70
2022-12-14T03:23:22.444Z,-4.70
2022-12-14T03:28:43.299Z,-4.70
2022-12-14T03:33:49.234Z,-4.70
2022-12-14T03:38:56.214Z,-4.70
2022-12-14T03:44:39.077Z,-4.70
2022-12-14T03:49:49.196Z,-4.80
2022-12-14T03:55:17.338Z,-4.80
2022-12-14T04:00:23.659Z,-4.80
2022-12-14T04:05:48.872Z,-4.80
2022-12-14T04:11:14.763Z,-4.80
2022-12-14T04:16:43.286Z,-5.00
2022-12-14T04:22:07.038Z,-4.90
2022-12-14T04:27:32.563Z,-4.80
2022-12-14T04:32:43.811Z,-4.90
2022-12-14T04:37:56.774Z,-4.90
2022-12-14T04:43:07.684Z,-4.80
2022-12-14T04:48:26.508Z,-4.80
2022-12-14T04:53:34.434Z,-4.90
2022-12-14T04:58:38.431Z,-4.80
2022-12-14T05:04:14.050Z,-4.80
2022-12-14T05:09:20.922Z,-4.80
2022-12-14T05:14:37.537Z,-4.90
2022-12-14T05:20:03.381Z,-5.00
2022-12-14T05:25:06.946Z,-4.90
2022-12-14T05:30:10.622Z,-5.10
2022-12-14T05:35:14.633Z,-5.10
2022-12-14T05:40:17.781Z,-5.00
2022-12-14T05:45:20.793Z,-5.00
2022-12-14T05:50:23.894Z,-5.10
2022-12-14T05:55:26.942Z,-5.10
2022-12-14T06:00:29.943Z,-5.10
2022-12-14T06:05:34.807Z,-5.10
2022-12-14T06:10:37.815Z,-5.10
2022-12-14T06:15:41.421Z,-5.10
2022-12-14T06:20:44.468Z,-5.10
2022-12-14T06:25:55.015Z,-5.10
2022-12-14T06:30:58.094Z,-5.10
2022-12-14T06:36:01.607Z,-5.10
2022-12-14T06:41:08.998Z,-5.00
2022-12-14T06:46:17.228Z,-5.10
2022-12-14T06:51:21.281Z,-5.20
2022-12-14T06:56:26.596Z,-5.10
2022-12-14T07:01:29.897Z,-5.10
2022-12-14T07:06:37.509Z,-5.10
2022-12-14T07:11:40.808Z,-5.10
2022-12-14T07:16:47.710Z,-5.00
2022-12-14T07:21:51.440Z,-5.00
2022-12-14T07:26:56.558Z,-4.90
2022-12-14T07:31:59.739Z,-4.80
2022-12-14T07:37:02.802Z,-4.90
2022-12-14T07:42:05.863Z,-4.80
2022-12-14T07:47:12.472Z,-4.80
2022-12-14T07:52:18.182Z,-4.80
2022-12-14T07:57:21.272Z,-5.00
2022-12-14T08:02:24.406Z,-5.00
2022-12-14T08:07:31.584Z,-4.80
2022-12-14T08:12:34.674Z,-4.70
2022-12-14T08:17:37.769Z,-4.70
2022-12-14T08:22:40.809Z,-4.50
2022-12-14T08:27:44.061Z,-4.40
2022-12-14T08:32:47.090Z,-4.30
2022-12-14T08:37:53.472Z,-4.30
2022-12-14T08:42:56.556Z,-4.20
2022-12-14T08:48:00.809Z,-4.20
2022-12-14T08:53:03.888Z,-4.10
2022-12-14T08:58:06.926Z,-3.90
2022-12-14T09:03:10.256Z,-3.80
2022-12-14T09:08:15.508Z,-3.80
2022-12-14T09:13:19.245Z,-3.60
2022-12-14T09:18:22.280Z,-3.50
2022-12-14T09:23:27.434Z,-3.30
2022-12-14T09:28:32.088Z,-3.30
2022-12-14T09:33:38.565Z,-3.40
2022-12-14T09:38:50.612Z,-3.40
2022-12-14T09:44:18.673Z,-3.40
2022-12-14T09:49:34.778Z,-3.20
2022-12-14T09:54:43.012Z,-3.30
2022-12-14T09:59:46.057Z,-3.20
2022-12-14T10:05:12.371Z,-3.20
2022-12-14T10:10:36.973Z,-3.20
2022-12-14T10:15:49.236Z,-3.20
2022-12-14T10:21:16.051Z,-3.20
2022-12-14T10:26:23.188Z,-3.00
2022-12-14T10:31:50.598Z,-3.20
2022-12-14T10:37:07.175Z,-3.10
2022-12-14T10:42:24.314Z,-3.00
2022-12-14T10:47:40.322Z,-2.90
2022-12-14T10:52:45.302Z,-2.90
2022-12-14T10:57:48.452Z,-2.90
2022-12-14T11:02:57.230Z,-2.90
2022-12-14T11:08:00.648Z,-2.90
2022-12-14T11:13:22.416Z,-2.80
2022-12-14T11:18:31.377Z,-2.50
2022-12-14T11:23:41.013Z,-2.50
2022-12-14T11:28:52.615Z,-2.40
2022-12-14T11:33:57.832Z,-2.30
2022-12-14T11:39:04.956Z,-2.20
2022-12-14T11:44:17.156Z,-2.40
2022-12-14T11:49:35.355Z,-2.20
2022-12-14T11:54:41.204Z,-2.10
2022-12-14T11:59:55.269Z,-2.10
2022-12-14T12:05:17.525Z,-2.40
2022-12-14T12:10:36.578Z,-2.20
2022-12-14T12:15:42.378Z,-2.30
2022-12-14T12:21:02.299Z,-2.20
2022-12-14T12:26:19.781Z,-2.10
2022-12-14T12:31:29.748Z,-2.30
2022-12-14T12:36:33.863Z,-2.30
2022-12-14T12:42:13.682Z,-2.30
2022-12-14T12:47:47.248Z,-2.30
2022-12-14T12:53:04.333Z,-2.30
2022-12-14T12:58:10.266Z,-2.50
2022-12-14T13:03:27.851Z,-2.30
2022-12-14T13:08:35.012Z,-2.30
2022-12-14T13:13:44.921Z,-2.20
2022-12-14T13:19:08.715Z,-2.10
2022-12-14T13:24:20.190Z,-2.10
2022-12-14T13:29:44.333Z,-2.20
2022-12-14T13:35:06.598Z,-2.30
2022-12-14T13:40:24.953Z,-2.30
2022-12-14T13:45:43.548Z,-2.30
2022-12-14T13:51:02.135Z,-2.20
2022-12-14T13:56:06.594Z,-2.50
2022-12-14T14:01:23.216Z,-2.30
2022-12-14T14:06:38.595Z,-2.30
2022-12-14T14:11:41.615Z,-2.60
2022-12-14T14:16:52.076Z,-2.30
2022-12-14T14:22:26.592Z,-2.40
2022-12-14T14:27:37.329Z,-2.50
2022-12-14T14:32:42.819Z,-2.50
2022-12-14T14:38:13.399Z,-2.40
2022-12-14T14:43:37.901Z,-2.50
2022-12-14T14:48:55.487Z,-2.70
2022-12-14T14:54:46.519Z,-2.80
2022-12-14T14:59:50.656Z,-2.60
2022-12-14T15:04:57.083Z,-2.80
2022-12-14T15:10:06.665Z,-2.80
2022-12-14T15:15:26.374Z,-2.70
2022-12-14T15:20:30.817Z,-2.90
2022-12-14T15:25:34.069Z,-3.00
2022-12-14T15:30:37.228Z,-2.90
2022-12-14T15:35:49.501Z,-2.90
2022-12-14T15:41:05.232Z,-3.10
2022-12-14T15:46:17.282Z,-3.20
2022-12-14T15:51:20.638Z,-3.20
2022-12-14T15:56:33.735Z,-3.10
2022-12-14T16:01:46.088Z,-3.20
2022-12-14T16:07:15.603Z,-3.30
2022-12-14T16:12:25.296Z,-3.30
2022-12-14T16:17:32.754Z,-3.40
2022-12-14T16:22:40.242Z,-3.30
2022-12-14T16:27:51.992Z,-3.10
2022-12-14T16:33:06.632Z,-3.10
2022-12-14T16:38:15.180Z,-3.00
2022-12-14T16:43:54.537Z,-3.00
2022-12-14T16:49:20.773Z,-3.00
2022-12-14T16:54:32.435Z,-3.10
2022-12-14T16:59:42.385Z,-3.00
2022-12-14T17:04:45.487Z,-3.00
2022-12-14T17:09:49.643Z,-3.00
2022-12-14T17:14:53.853Z,-2.90
2022-12-14T17:19:57.217Z,-2.80
2022-12-14T17:25:02.731Z,-2.80
2022-12-14T17:30:06.320Z,-2.90
2022-12-14T17:35:17.420Z,-2.80
2022-12-14T17:40:20.535Z,-2.80
2022-12-14T17:45:30.607Z,-2.80
2022-12-14T17:50:34.494Z,-2.80
2022-12-14T17:55:37.563Z,-2.70
2022-12-14T18:00:59.780Z,-2.70
2022-12-14T18:06:04.844Z,-2.70
2022-12-14T18:11:13.558Z,-2.70
2022-12-14T18:16:19.908Z,-2.70
2022-12-14T18:21:26.365Z,-2.80
2022-12-14T18:26:29.459Z,-2.90
2022-12-14T18:31:36.334Z,-2.80
2022-12-14T18:36:39.777Z,-2.80
2022-12-14T18:41:42.853Z,-2.80
2022-12-14T18:46:49.338Z,-2.80
2022-12-14T18:51:52.724Z,-2.90
2022-12-14T18:56:55.832Z,-2.90
2022-12-14T19:01:58.962Z,-2.90
2022-12-14T19:07:02.334Z,-3.00
2022-12-14T19:12:05.639Z,-3.10
2022-12-14T19:17:08.683Z,-3.40
2022-12-14T19:22:11.982Z,-3.40
2022-12-14T19:27:14.996Z,-3.50
2022-12-14T19:32:18.097Z,-3.70
2022-12-14T19:37:24.667Z,-3.60
2022-12-14T19:42:30.232Z,-3.60
2022-12-14T19:47:33.348Z,-3.70
2022-12-14T19:52:37.198Z,-3.70
2022-12-14T19:57:40.887Z,-3.70
2022-12-14T20:02:45.132Z,-3.70
2022-12-14T20:07:52.968Z,-3.90
2022-12-14T20:12:55.977Z,-3.90
2022-12-14T20:17:58.973Z,-3.90
2022-12-14T20:23:02.023Z,-4.00
2022-12-14T20:28:05.474Z,-4.00
2022-12-14T20:33:08.581Z,-4.20
2022-12-14T20:38:11.653Z,-4.40
2022-12-14T20:43:14.642Z,-4.50
2022-12-14T20:48:17.704Z,-4.60
2022-12-14T20:53:20.803Z,-4.70
2022-12-14T20:58:23.898Z,-4.80
2022-12-14T21:03:27.719Z,-4.90
2022-12-14T21:08:31.922Z,-4.90
2022-12-14T21:13:34.958Z,-5.00
2022-12-14T21:18:38.042Z,-5.10
2022-12-14T21:23:42.119Z,-5.30
2022-12-14T21:28:45.223Z,-5.40
2022-12-14T21:33:49.996Z,-5.50
2022-12-14T21:38:55.884Z,-5.60
2022-12-14T21:44:00.018Z,-5.70
2022-12-14T21:49:03.614Z,-5.70
2022-12-14T21:54:06.950Z,-5.80
2022-12-14T21:59:09.959Z,-5.80
2022-12-14T22:04:13.028Z,-5.90
2022-12-14T22:09:17.148Z,-6.00
2022-12-14T22:14:23.580Z,-6.10
2022-12-14T22:19:26.793Z,-6.20
2022-12-14T22:24:30.012Z,-6.30
2022-12-14T22:29:33.226Z,-6.40
2022-12-14T22:34:36.380Z,-6.60
2022-12-14T22:39:39.389Z,-6.80
2022-12-14T22:44:42.382Z,-6.90
2022-12-14T22:49:45.497Z,-7.00
2022-12-14T22:54:49.809Z,-7.10
2022-12-14T22:59:56.063Z,-7.10
2022-12-14T23:04:59.299Z,-7.20
2022-12-14T23:10:20.972Z,-7.20
2022-12-14T23:15:42.459Z,-7.30
2022-12-14T23:21:03.808Z,-7.20
2022-12-14T23:26:25.153Z,-7.20
2022-12-14T23:31:46.625Z,-7.20
2022-12-14T23:37:07.940Z,-7.20
2022-12-14T23:42:29.292Z,-7.10
2022-12-14T23:47:50.691Z,-7.00
2022-12-14T23:53:12.358Z,-7.00
2022-12-14T23:58:34.324Z,-6.90
